Time;durP1;ratioP1;P1;durP2;ratioP2;P2;SDS_P1;SDS_P2;PMS_P1;PMS_P2;Temp;Humidity;BMP_temperature;BMP_pressure;BME280_temperature;BME280_humidity;BME280_pressure;Samples;Min_cycle;Max_cycle;Signal;HPM_P1;HPM_P2
2022/09/30 00:00:19;;;;;;;2.88;1.52;;;;;;;21.87;44.73;98355.09;5071241;28;20033;-71
2022/09/30 00:02:44;;;;;;;2.22;1.30;;;;;;;21.85;44.93;98352.66;5071185;28;20515;-71
2022/09/30 00:05:10;;;;;;;6.45;1.33;;;;;;;21.85;44.96;98357.13;5071373;28;20032;-71
2022/09/30 00:07:35;;;;;;;2.38;1.40;;;;;;;21.84;44.94;98352.84;5054558;28;20043;-71
2022/09/30 00:10:02;;;;;;;5.97;1.48;;;;;;;21.81;45.28;98356.72;5054332;28;20113;-71
2022/09/30 00:12:27;;;;;;;2.05;1.42;;;;;;;21.77;44.96;98358.13;5054636;28;20111;-71
2022/09/30 00:14:53;;;;;;;4.53;1.40;;;;;;;21.78;45.04;98357.09;5053696;28;20040;-71
2022/09/30 00:17:19;;;;;;;2.90;1.50;;;;;;;21.79;45.01;98364.06;5037516;28;20044;-71
2022/09/30 00:19:45;;;;;;;2.20;1.30;;;;;;;21.76;44.99;98367.13;5070894;28;20044;-71
2022/09/30 00:22:11;;;;;;;2.80;1.48;;;;;;;21.78;45.23;98370.41;5070923;28;20062;-71
2022/09/30 00:24:36;;;;;;;3.67;1.38;;;;;;;21.72;45.27;98360.56;5054119;28;20117;-71
2022/09/30 00:27:02;;;;;;;3.53;1.30;;;;;;;21.75;45.18;98373.44;5071012;28;20037;-71
2022/09/30 00:29:28;;;;;;;3.08;1.50;;;;;;;21.69;45.45;98369.72;5071001;28;20029;-71
2022/09/30 00:31:53;;;;;;;5.65;1.48;;;;;;;21.66;45.41;98371.97;5072288;28;20055;-71
2022/09/30 00:34:19;;;;;;;4.10;1.50;;;;;;;21.69;45.34;98388.31;5053970;28;20041;-71
2022/09/30 00:36:46;;;;;;;3.20;1.60;;;;;;;21.68;45.49;98385.88;5071919;28;20495;-71
2022/09/30 00:39:23;;;;;;;3.30;1.50;;;;;;;21.66;45.52;98391.41;5054253;28;20032;-71
2022/09/30 00:41:51;;;;;;;4.15;1.67;;;;;;;21.63;45.49;98381.16;5054267;28;20028;-71
2022/09/30 00:44:44;;;;;;;2.90;1.40;;;;;;;21.63;45.58;98394.44;5054272;28;20029;-71
2022/09/30 00:47:34;;;;;;;3.47;1.45;;;;;;;21.60;45.81;98384.22;5071936;28;20024;-71
2022/09/30 00:50:25;;;;;;;4.88;1.40;;;;;;;21.53;45.82;98390.50;5071685;28;20506;-71
2022/09/30 00:53:06;;;;;;;3.33;1.60;;;;;;;21.54;45.81;98392.13;5071126;28;20043;-71
2022/09/30 00:55:40;;;;;;;4.18;1.60;;;;;;;21.53;45.89;98401.13;5038073;28;20040;-71
2022/09/30 00:58:07;;;;;;;3.67;1.60;;;;;;;21.49;45.84;98393.56;5068042;28;20108;-71
2022/09/30 01:00:33;;;;;;;2.73;1.40;;;;;;;21.49;45.62;98393.56;5053978;28;20055;-71
2022/09/30 01:02:58;;;;;;;5.10;1.77;;;;;;;21.53;45.86;98399.28;5037119;28;20480;-71
2022/09/30 01:05:25;;;;;;;4.07;1.63;;;;;;;21.50;45.84;98404.97;5054138;28;20036;-72
2022/09/30 01:07:51;;;;;;;2.20;1.40;;;;;;;21.46;45.77;98403.72;5054366;28;20121;-72
2022/09/30 01:10:16;;;;;;;3.83;1.70;;;;;;;21.46;45.99;98406.38;5053687;28;20052;-72
2022/09/30 01:12:42;;;;;;;3.15;1.70;;;;;;;21.48;45.81;98410.50;5037136;28;20468;-72
2022/09/30 01:15:08;;;;;;;5.05;1.58;;;;;;;21.45;45.84;98416.16;5053514;28;20032;-72
2022/09/30 01:18:16;;;;;;;3.40;1.60;;;;;;;21.39;46.02;98414.28;5037705;28;20364;-72
2022/09/30 01:20:51;;;;;;;3.97;1.60;;;;;;;21.38;46.32;98427.75;5052387;28;20566;-72
2022/09/30 01:23:56;;;;;;;3.33;1.90;;;;;;;21.31;46.36;98427.72;5052503;28;20032;-72
2022/09/30 01:26:25;;;;;;;3.15;1.80;;;;;;;21.28;46.28;98436.88;5053436;28;20487;-72
2022/09/30 01:29:19;;;;;;;5.07;1.92;;;;;;;21.28;46.31;98433.41;5073077;28;20024;-71
2022/09/30 01:32:01;;;;;;;3.92;2.00;;;;;;;21.26;46.45;98436.25;5013394;28;20041;-71
2022/09/30 01:34:42;;;;;;;3.88;2.05;;;;;;;21.25;46.70;98433.78;4996829;28;20042;-71
2022/09/30 01:37:31;;;;;;;3.38;2.20;;;;;;;21.25;46.66;98429.31;5013146;28;20053;-72
2022/09/30 01:39:59;;;;;;;3.95;2.03;;;;;;;21.24;46.47;98434.81;4996951;28;20033;-71
2022/09/30 01:42:46;;;;;;;5.30;2.35;;;;;;;21.22;46.29;98431.53;5012886;28;20053;-72
2022/09/30 01:45:15;;;;;;;5.43;2.30;;;;;;;21.23;46.55;98426.03;5013358;28;20037;-71
2022/09/30 01:48:07;;;;;;;4.68;2.00;;;;;;;21.23;46.58;98428.66;5013031;28;20034;-71
2022/09/30 01:50:52;;;;;;;4.05;2.33;;;;;;;21.24;46.68;98432.16;5012913;28;20122;-71
2022/09/30 01:53:26;;;;;;;4.05;2.45;;;;;;;21.22;46.77;98429.72;5012647;28;20034;-71
2022/09/30 01:56:05;;;;;;;5.80;2.90;;;;;;;21.14;46.66;98421.88;5012923;28;20480;-70
2022/09/30 01:59:05;;;;;;;;;;;;;;;21.20;46.43;98434.38;4981284;28;20040;-70
2022/09/30 02:01:48;;;;;;;4.97;2.60;;;;;;;21.12;46.71;98430.03;5032454;28;19913;-71
2022/09/30 02:04:19;;;;;;;4.80;3.15;;;;;;;21.10;46.77;98425.94;5032065;28;20123;-71
2022/09/30 02:06:47;;;;;;;5.00;3.17;;;;;;;21.04;47.02;98421.38;5032306;28;20037;-72
2022/09/30 02:09:19;;;;;;;4.40;3.30;;;;;;;21.09;47.01;98425.09;5067558;28;20052;-71
2022/09/30 02:11:44;;;;;;;6.97;3.40;;;;;;;21.03;47.05;98409.97;5056114;28;20036;-71
2022/09/30 02:14:23;;;;;;;5.88;2.80;;;;;;;21.07;47.01;98423.66;5038278;28;20067;-71
2022/09/30 02:17:08;;;;;;;6.18;2.88;;;;;;;21.05;47.13;98423.03;5038749;28;20045;-71
2022/09/30 02:19:39;;;;;;;3.85;2.88;;;;;;;21.03;46.92;98423.25;5071753;28;20115;-71
2022/09/30 02:22:08;;;;;;;4.25;2.70;;;;;;;21.02;47.37;98426.06;5038799;28;20149;-71
2022/09/30 02:24:37;;;;;;;7.45;2.90;;;;;;;20.97;47.37;98431.97;5039017;28;20086;-71
2022/09/30 02:27:10;;;;;;;4.10;2.45;;;;;;;20.99;47.11;98426.47;5048925;28;20052;-71
2022/09/30 02:29:38;;;;;;;6.30;2.72;;;;;;;21.03;47.02;98436.50;5059787;28;20144;-70
2022/09/30 02:32:14;;;;;;;6.43;2.63;;;;;;;21.01;47.19;98424.44;5059067;28;20054;-71
2022/09/30 02:34:41;;;;;;;3.60;2.30;;;;;;;21.00;47.25;98425.44;5056889;28;20063;-70
2022/09/30 02:37:36;;;;;;;7.03;2.45;;;;;;;21.04;47.37;98429.34;5039397;28;20127;-71
2022/09/30 02:40:20;;;;;;;4.82;2.22;;;;;;;21.03;47.52;98427.69;5072256;28;20452;-71
2022/09/30 02:42:46;;;;;;;5.30;2.50;;;;;;;21.01;47.31;98427.91;5073774;28;20448;-71
2022/09/30 02:45:15;;;;;;;5.38;2.30;;;;;;;20.99;47.46;98421.97;5039520;28;20047;-71
2022/09/30 02:48:02;;;;;;;5.05;2.60;;;;;;;21.00;47.44;98430.72;5056312;28;20035;-71
2022/09/30 02:50:32;;;;;;;5.05;2.30;;;;;;;20.97;47.43;98429.31;5073749;28;20033;-71
2022/09/30 02:53:35;;;;;;;4.07;2.33;;;;;;;20.96;47.41;98420.50;5072403;28;20411;-70
2022/09/30 02:56:07;;;;;;;5.35;2.15;;;;;;;20.94;47.43;98427.03;5054076;28;20411;-70
2022/09/30 02:58:35;;;;;;;5.10;2.25;;;;;;;20.93;47.46;98428.03;5071426;28;20439;-71
2022/09/30 03:01:00;;;;;;;6.70;2.55;;;;;;;20.89;47.56;98429.41;5054999;28;20061;-70
2022/09/30 03:03:28;;;;;;;3.10;2.30;;;;;;;20.89;47.79;98432.91;5054618;28;20464;-71
2022/09/30 03:05:54;;;;;;;7.63;2.20;;;;;;;20.88;47.65;98438.41;5054382;28;20105;-71
2022/09/30 03:08:19;;;;;;;5.53;2.22;;;;;;;20.82;47.88;98432.03;5054565;28;20463;-71
2022/09/30 03:10:46;;;;;;;4.35;2.10;;;;;;;20.85;47.81;98434.28;5054539;28;20039;-71
2022/09/30 03:13:20;;;;;;;4.22;2.30;;;;;;;20.86;47.88;98435.09;5054577;28;20131;-71
2022/09/30 03:16:17;;;;;;;3.13;2.20;;;;;;;20.86;47.98;98437.75;5037495;28;20040;-71
2022/09/30 03:18:56;;;;;;;4.22;2.53;;;;;;;20.84;48.02;98437.13;5050569;28;20041;-71
2022/09/30 03:21:43;;;;;;;4.03;2.30;;;;;;;20.80;48.20;98434.06;5034447;28;20067;-71
2022/09/30 03:24:46;;;;;;;4.82;2.50;;;;;;;20.81;48.27;98441.00;5042811;28;20036;-70
2022/09/30 03:27:31;;;;;;;7.85;2.60;;;;;;;20.73;48.14;98441.94;5050557;28;20041;-73
2022/09/30 03:30:04;;;;;;;3.38;2.20;;;;;;;20.75;48.31;98450.53;5034547;28;20432;-72
2022/09/30 03:32:55;;;;;;;3.35;2.20;;;;;;;20.73;48.37;98441.09;5034166;28;20397;-72
2022/09/30 03:35:26;;;;;;;4.72;2.10;;;;;;;20.74;48.20;98448.88;5050954;28;20412;-72
2022/09/30 03:38:02;;;;;;;3.80;2.00;;;;;;;20.80;48.24;98451.81;5051225;28;20021;-72
2022/09/30 03:40:44;;;;;;;4.55;2.30;;;;;;;20.71;48.23;98445.78;5041597;28;20090;-72
2022/09/30 03:43:46;;;;;;;2.50;1.88;;;;;;;20.76;48.35;98460.13;5037333;28;20127;-71
2022/09/30 03:46:22;;;;;;;5.93;2.17;;;;;;;20.80;48.36;98465.06;5071432;28;20075;-72
2022/09/30 03:48:50;;;;;;;5.35;2.20;;;;;;;20.68;48.31;98452.28;5071184;28;20177;-71
2022/09/30 03:51:16;;;;;;;2.85;2.10;;;;;;;20.73;48.44;98468.47;5053225;28;20415;-70
2022/09/30 03:53:41;;;;;;;4.03;1.92;;;;;;;20.66;48.60;98477.38;5053844;28;20037;-70
2022/09/30 03:56:07;;;;;;;3.28;2.03;;;;;;;20.65;48.67;98481.84;5071968;28;20503;-69
2022/09/30 03:58:33;;;;;;;3.92;2.17;;;;;;;20.63;48.52;98483.03;5034475;28;20041;-69
2022/09/30 04:00:59;;;;;;;4.53;2.30;;;;;;;20.61;48.61;98473.41;5018485;28;20098;-69
2022/09/30 04:03:26;;;;;;;6.57;2.45;;;;;;;20.68;48.62;98486.75;5051149;28;20037;-70
2022/09/30 04:05:52;;;;;;;7.75;2.45;;;;;;;20.70;48.47;98486.56;5052351;28;20029;-70
2022/09/30 04:08:17;;;;;;;5.80;2.60;;;;;;;20.68;48.43;98492.06;5034563;28;20036;-70
2022/09/30 04:10:43;;;;;;;7.18;2.95;;;;;;;20.71;48.47;98494.34;5052346;28;20025;-69
2022/09/30 04:13:09;;;;;;;8.95;2.70;;;;;;;20.74;48.71;98496.63;5034795;28;20029;-69
2022/09/30 04:15:35;;;;;;;6.28;2.30;;;;;;;20.77;48.47;98482.16;5034393;28;20053;-69
2022/09/30 04:18:01;;;;;;;10.35;3.60;;;;;;;20.84;48.40;98492.84;5034390;28;20381;-71
2022/09/30 04:20:26;;;;;;;6.50;2.75;;;;;;;20.85;48.28;98491.84;5034768;28;20408;-71
2022/09/30 04:22:52;;;;;;;10.30;2.40;;;;;;;21.05;48.97;98511.44;5050662;28;20052;-70
2022/09/30 04:25:17;;;;;;;9.35;2.53;;;;;;;21.39;50.50;98506.41;5034888;28;20048;-70
2022/09/30 04:27:43;;;;;;;5.75;2.42;;;;;;;21.73;49.98;98505.66;5034399;28;20366;-69
2022/09/30 04:30:09;;;;;;;7.03;2.03;;;;;;;22.07;49.26;98514.63;5050439;28;20033;-70
2022/09/30 04:32:34;;;;;;;5.90;2.47;;;;;;;22.44;47.83;98499.28;5050980;28;20243;-74
2022/09/30 04:34:59;;;;;;;10.02;2.58;;;;;;;22.95;46.68;98501.44;5067957;28;20400;-72
2022/09/30 04:37:25;;;;;;;5.15;2.38;;;;;;;23.42;45.47;98511.31;5063794;28;20037;-71
2022/09/30 04:39:50;;;;;;;6.20;2.22;;;;;;;23.92;43.69;98519.69;5059516;28;20037;-71
2022/09/30 04:42:17;;;;;;;9.23;2.35;;;;;;;24.43;42.73;98514.59;5028089;28;20515;-70
2022/09/30 04:44:43;;;;;;;9.98;2.45;;;;;;;24.92;41.30;98513.94;5059776;28;20445;-69
2022/09/30 04:47:08;;;;;;;11.80;2.70;;;;;;;25.44;39.87;98513.81;5043232;28;20081;-67
2022/09/30 04:49:34;;;;;;;15.55;2.55;;;;;;;25.98;38.64;98516.78;5042918;28;20040;-71
2022/09/30 04:52:00;;;;;;;14.45;3.22;;;;;;;26.43;36.92;98512.16;5030415;28;20036;-68
2022/09/30 04:54:26;;;;;;;10.95;2.90;;;;;;;26.63;36.38;98518.06;5055583;28;20029;-67
2022/09/30 04:56:51;;;;;;;14.68;2.83;;;;;;;27.00;36.33;98520.66;5059744;28;20055;-70
2022/09/30 04:59:17;;;;;;;15.25;2.78;;;;;;;27.53;35.31;98526.22;5043331;28;20769;-69
2022/09/30 05:01:43;;;;;;;13.65;2.75;;;;;;;28.02;34.05;98531.38;5042673;28;20108;-73
2022/09/30 05:04:11;;;;;;;8.40;2.65;;;;;;;28.37;33.34;98523.25;5031155;28;20059;-78
2022/09/30 05:06:38;;;;;;;7.43;2.42;;;;;;;28.81;32.41;98531.63;5062318;28;20102;-78
2022/09/30 05:09:04;;;;;;;5.45;2.22;;;;;;;29.19;31.73;98532.84;5049872;28;20441;-71
2022/09/30 05:11:29;;;;;;;8.55;2.42;;;;;;;29.38;31.05;98537.97;5045207;28;20021;-71
2022/09/30 05:13:55;;;;;;;8.70;2.47;;;;;;;29.57;30.78;98535.84;5061959;28;20032;-69
2022/09/30 05:16:20;;;;;;;6.68;2.60;;;;;;;29.86;30.44;98547.34;5046213;28;20071;-71
2022/09/30 05:18:46;;;;;;;6.93;2.72;;;;;;;30.08;30.37;98543.88;5044518;28;20115;-70
2022/09/30 05:21:15;;;;;;;9.05;2.65;;;;;;;30.29;30.00;98553.81;5045761;28;20517;-71
2022/09/30 05:23:41;;;;;;;5.30;2.60;;;;;;;30.44;29.70;98547.84;5031757;28;20033;-73
2022/09/30 05:26:06;;;;;;;9.20;3.22;;;;;;;30.62;29.05;98541.31;5023597;28;20040;-72
2022/09/30 05:28:32;;;;;;;8.52;2.78;;;;;;;30.79;28.92;98535.00;5061070;28;20035;-72
2022/09/30 05:30:59;;;;;;;6.72;3.00;;;;;;;30.96;28.68;98548.38;5045966;28;20033;-74
2022/09/30 05:33:24;;;;;;;10.63;2.83;;;;;;;31.14;28.63;98556.13;5045798;28;20102;-70
2022/09/30 05:35:50;;;;;;;10.07;3.03;;;;;;;31.39;28.60;98546.63;5067340;28;20075;-71
2022/09/30 05:38:15;;;;;;;9.32;2.60;;;;;;;31.66;27.97;98551.16;5057244;28;20462;-69
2022/09/30 05:40:41;;;;;;;9.02;2.47;;;;;;;31.88;27.92;98551.03;5069547;28;20024;-70
2022/09/30 05:43:07;;;;;;;6.93;2.58;;;;;;;32.06;27.54;98553.28;5067450;28;20076;-70
2022/09/30 05:45:32;;;;;;;6.75;2.60;;;;;;;32.26;27.11;98565.28;5053599;28;20391;-69
2022/09/30 05:47:58;;;;;;;5.53;2.33;;;;;;;32.45;27.18;98568.31;5036906;28;20043;-70
2022/09/30 05:50:24;;;;;;;4.88;2.08;;;;;;;32.65;27.06;98567.63;5055234;28;20033;-69
2022/09/30 05:52:49;;;;;;;5.18;2.33;;;;;;;32.86;26.67;98562.25;5055138;28;20037;-70
2022/09/30 05:55:16;;;;;;;3.38;1.77;;;;;;;33.02;26.62;98554.97;5037328;28;20028;-71
2022/09/30 05:57:42;;;;;;;5.90;2.00;;;;;;;33.30;26.25;98564.50;5053595;28;20033;-70
2022/09/30 06:00:08;;;;;;;6.75;2.25;;;;;;;33.48;26.16;98558.56;5036672;28;20116;-70
2022/09/30 06:02:37;;;;;;;5.38;1.98;;;;;;;33.67;25.66;98556.09;5053063;28;20080;-70
2022/09/30 06:05:03;;;;;;;3.38;1.90;;;;;;;33.87;25.28;98563.41;5053551;28;20035;-70
2022/09/30 06:07:29;;;;;;;6.65;1.90;;;;;;;34.14;25.07;98573.03;5020899;28;20044;-70
2022/09/30 06:09:54;;;;;;;5.70;1.83;;;;;;;34.30;24.55;98576.56;5053540;28;20044;-70
2022/09/30 06:12:20;;;;;;;8.15;1.88;;;;;;;34.50;23.91;98593.81;5055757;28;20098;-71
2022/09/30 06:14:45;;;;;;;5.80;1.67;;;;;;;34.67;23.90;98588.84;5056713;28;20020;-71
2022/09/30 06:17:11;;;;;;;4.90;1.90;;;;;;;34.83;23.55;98591.53;5056257;28;20053;-71
2022/09/30 06:19:36;;;;;;;5.18;1.70;;;;;;;35.03;23.37;98602.25;5073105;28;20438;-70
2022/09/30 06:22:02;;;;;;;5.43;1.90;;;;;;;35.18;23.01;98595.09;5073679;28;20480;-71
2022/09/30 06:24:27;;;;;;;5.60;1.83;;;;;;;35.31;22.44;98598.00;5039635;28;20021;-71
2022/09/30 06:26:53;;;;;;;5.53;1.52;;;;;;;35.38;22.61;98597.66;5056353;28;20028;-71
2022/09/30 06:29:18;;;;;;;2.88;1.67;;;;;;;35.54;22.49;98595.63;5074185;28;20483;-71
2022/09/30 06:31:44;;;;;;;3.90;1.90;;;;;;;35.61;22.57;98596.09;5072492;28;20056;-70
2022/09/30 06:34:09;;;;;;;7.35;1.95;;;;;;;35.71;22.31;98589.78;5056904;28;20112;-71
2022/09/30 06:36:35;;;;;;;6.68;1.83;;;;;;;35.75;22.57;98593.56;5073341;28;20523;-71
2022/09/30 06:39:01;;;;;;;9.02;1.88;;;;;;;35.79;22.74;98589.19;5039535;28;20407;-73
2022/09/30 06:41:27;;;;;;;6.20;1.90;;;;;;;35.92;22.43;98590.41;5056293;28;20476;-73
2022/09/30 06:43:53;;;;;;;6.10;1.90;;;;;;;36.08;22.31;98599.19;5056003;28;20029;-71
2022/09/30 06:46:20;;;;;;;6.40;2.30;;;;;;;36.14;22.10;98597.25;5055978;28;20500;-71
2022/09/30 06:48:45;;;;;;;7.50;2.20;;;;;;;36.24;21.97;98588.97;5056216;28;20082;-72
2022/09/30 06:51:11;;;;;;;7.05;2.30;;;;;;;36.38;21.85;98597.25;5055961;28;20404;-72
2022/09/30 06:53:38;;;;;;;6.78;2.38;;;;;;;36.60;21.68;98607.59;5055895;28;20029;-74
2022/09/30 06:56:05;;;;;;;8.00;2.50;;;;;;;36.84;21.67;98610.28;5072642;28;20032;-72
2022/09/30 06:58:30;;;;;;;6.60;2.47;;;;;;;37.00;21.48;98604.63;5056036;28;20035;-73
2022/09/30 07:01:02;;;;;;;6.50;1.85;;;;;;;37.27;21.15;98615.66;5055740;28;20479;-72
2022/09/30 07:03:30;;;;;;;7.43;2.03;;;;;;;37.58;20.58;98622.53;5056089;28;20024;-72
2022/09/30 07:05:57;;;;;;;5.28;1.85;;;;;;;37.80;20.30;98627.34;5055891;28;20045;-71
2022/09/30 07:08:24;;;;;;;3.95;1.70;;;;;;;37.94;20.28;98627.34;5067283;28;20024;-71
2022/09/30 07:10:51;;;;;;;5.75;2.15;;;;;;;38.20;19.99;98625.00;5035935;28;20481;-72
2022/09/30 07:13:17;;;;;;;4.70;1.80;;;;;;;38.43;19.90;98623.19;5019099;28;20025;-72
2022/09/30 07:15:42;;;;;;;4.20;1.60;;;;;;;38.55;19.96;98631.63;5034890;28;20585;-71
2022/09/30 07:18:08;;;;;;;7.82;1.98;;;;;;;38.65;19.41;98635.28;5053242;28;20048;-72
2022/09/30 07:20:33;;;;;;;4.60;1.70;;;;;;;38.80;19.35;98645.88;5053287;28;20033;-72
2022/09/30 07:22:59;;;;;;;7.05;1.85;;;;;;;39.03;19.16;98648.63;5035372;28;20040;-71
2022/09/30 07:25:24;;;;;;;6.97;2.03;;;;;;;39.38;18.69;98652.50;5050898;28;20041;-71
2022/09/30 07:27:50;;;;;;;4.75;1.80;;;;;;;39.69;18.22;98659.16;5035297;28;20037;-69
2022/09/30 07:30:15;;;;;;;6.07;1.88;;;;;;;39.84;18.31;98663.41;5035265;28;20032;-70
2022/09/30 07:32:42;;;;;;;3.47;1.60;;;;;;;39.83;18.13;98659.88;5052353;28;20057;-73
2022/09/30 07:35:07;;;;;;;6.15;1.80;;;;;;;39.65;18.59;98652.69;5053101;28;20045;-72
2022/09/30 07:37:34;;;;;;;10.40;1.90;;;;;;;39.44;18.70;98647.69;5018965;28;20032;-71
2022/09/30 07:40:00;;;;;;;;;;;;;;;39.12;18.96;98646.03;5035778;28;20029;-75
2022/09/30 07:42:26;;;;;;;5.40;1.67;;;;;;;38.99;19.00;98647.66;5051794;28;19909;-73
2022/09/30 07:44:51;;;;;;;5.50;1.52;;;;;;;38.94;19.16;98650.50;5018303;28;20041;-72
2022/09/30 07:47:17;;;;;;;3.75;1.67;;;;;;;38.84;19.42;98651.50;5035119;28;20464;-72
2022/09/30 07:49:43;;;;;;;6.80;1.67;;;;;;;38.68;18.84;98645.59;5052830;28;20029;-71
2022/09/30 07:52:09;;;;;;;7.00;1.70;;;;;;;38.54;19.66;98649.13;5051396;28;20090;-71
2022/09/30 07:54:35;;;;;;;11.00;1.60;;;;;;;38.53;19.46;98649.41;5034945;28;20021;-70
2022/09/30 07:57:01;;;;;;;9.75;1.67;;;;;;;38.68;19.65;98657.31;5034941;28;20116;-70
2022/09/30 07:59:27;;;;;;;4.05;1.50;;;;;;;38.84;19.33;98657.78;5051164;28;20488;-71
2022/09/30 08:01:53;;;;;;;6.03;1.63;;;;;;;38.95;19.27;98657.56;5034932;28;20064;-71
2022/09/30 08:04:19;;;;;;;6.00;1.80;;;;;;;39.04;19.01;98664.69;5051506;28;20150;-71
2022/09/30 08:06:49;;;;;;;7.95;1.55;;;;;;;39.01;19.27;98659.84;5034709;28;20044;-71
2022/09/30 08:09:15;;;;;;;4.32;1.60;;;;;;;39.03;19.13;98660.38;5035267;28;20032;-71
2022/09/30 08:11:41;;;;;;;3.83;1.30;;;;;;;38.95;19.57;98658.38;5034779;28;20028;-71
2022/09/30 08:14:07;;;;;;;5.03;1.52;;;;;;;38.93;19.81;98662.53;5051180;28;20287;-70
2022/09/30 08:16:33;;;;;;;6.20;1.45;;;;;;;38.88;19.54;98671.63;5034313;28;20049;-72
2022/09/30 08:18:59;;;;;;;7.60;1.63;;;;;;;38.85;19.60;98662.13;5052304;28;20048;-71
2022/09/30 08:21:25;;;;;;;4.53;1.63;;;;;;;38.85;19.64;98666.78;5034491;28;20074;-71
2022/09/30 08:23:51;;;;;;;4.30;1.58;;;;;;;38.79;19.65;98668.00;5017978;28;20052;-72
2022/09/30 08:26:16;;;;;;;8.50;2.10;;;;;;;38.75;19.75;98676.00;5034477;28;20033;-72
2022/09/30 08:28:42;;;;;;;5.30;1.40;;;;;;;38.71;19.58;98691.34;5034945;28;20021;-71
2022/09/30 08:31:10;;;;;;;3.67;1.23;;;;;;;38.66;19.70;98681.34;5018005;28;20117;-71
2022/09/30 08:33:35;;;;;;;4.43;1.23;;;;;;;38.64;19.88;98702.66;5034466;28;20028;-71
2022/09/30 08:36:08;;;;;;;3.08;1.30;;;;;;;38.61;19.83;98691.53;5050439;28;20056;-71
2022/09/30 08:38:34;;;;;;;4.55;1.50;;;;;;;38.62;19.81;98694.00;5017727;28;20021;-71
2022/09/30 08:41:21;;;;;;;4.88;1.38;;;;;;;38.63;20.08;98698.31;5018065;28;20051;-71
2022/09/30 08:44:08;;;;;;;4.78;1.20;;;;;;;38.66;20.46;98692.25;5051943;28;20025;-71
2022/09/30 08:46:46;;;;;;;9.57;1.83;;;;;;;38.73;20.17;98681.75;5052204;28;20025;-71
2022/09/30 08:49:48;;;;;;;5.80;1.60;;;;;;;38.78;19.91;98691.75;5051359;28;20031;-73
2022/09/30 08:52:19;;;;;;;4.80;1.70;;;;;;;38.80;19.49;98683.25;5052372;28;20478;-72
2022/09/30 08:54:46;;;;;;;4.95;1.40;;;;;;;38.76;19.82;98683.03;5018243;28;20063;-70
2022/09/30 08:57:12;;;;;;;5.57;1.17;;;;;;;38.82;19.77;98687.28;5034224;28;20381;-71
2022/09/30 08:59:41;;;;;;;3.85;1.35;;;;;;;38.83;19.54;98693.56;5034222;28;20559;-73
2022/09/30 09:02:29;;;;;;;5.15;1.23;;;;;;;38.85;20.05;98691.34;5034690;28;20036;-71
2022/09/30 09:05:01;;;;;;;3.55;1.40;;;;;;;38.84;19.66;98690.53;5050600;28;20051;-72
2022/09/30 09:07:44;;;;;;;4.93;1.40;;;;;;;38.86;19.69;98691.03;5017718;28;20039;-71
2022/09/30 09:10:13;;;;;;;7.07;1.77;;;;;;;38.87;19.83;98681.75;5051766;28;20029;-72
2022/09/30 09:13:15;;;;;;;5.88;1.42;;;;;;;38.85;19.95;98683.94;5051851;28;20436;-72
2022/09/30 09:15:48;;;;;;;2.97;1.40;;;;;;;38.84;19.95;98689.72;5050364;28;20055;-69
2022/09/30 09:18:35;;;;;;;6.35;1.50;;;;;;;38.75;19.95;98683.38;5034529;28;20021;-72
2022/09/30 09:21:08;;;;;;;3.03;1.40;;;;;;;38.71;19.68;98697.63;5034292;28;20037;-70
2022/09/30 09:23:33;;;;;;;5.03;1.38;;;;;;;38.66;20.03;98689.53;5035013;28;20090;-71
2022/09/30 09:25:59;;;;;;;3.53;1.38;;;;;;;38.68;20.10;98697.41;5033859;28;20033;-71
2022/09/30 09:28:27;;;;;;;5.85;1.33;;;;;;;38.64;20.04;98696.41;5050453;28;20037;-72
2022/09/30 09:30:56;;;;;;;6.25;1.77;;;;;;;38.64;20.43;98696.41;5050466;28;20032;-70
2022/09/30 09:33:25;;;;;;;5.82;1.50;;;;;;;38.64;20.44;98694.47;5050889;28;20102;-71
2022/09/30 09:36:03;;;;;;;10.55;1.48;;;;;;;38.68;19.86;98694.69;5050607;28;20111;-72
2022/09/30 09:38:48;;;;;;;5.60;1.42;;;;;;;38.64;19.77;98699.13;5018853;28;20036;-72
2022/09/30 09:41:26;;;;;;;5.43;1.60;;;;;;;38.51;19.96;98701.53;5050444;28;20541;-72
2022/09/30 09:44:10;;;;;;;8.85;1.92;;;;;;;38.49;19.97;98708.38;5050236;28;20025;-72
2022/09/30 09:46:49;;;;;;;11.85;1.88;;;;;;;38.41;20.25;98711.81;5051691;28;20025;-72
2022/09/30 09:49:28;;;;;;;6.43;1.90;;;;;;;38.36;20.25;98710.00;5037380;28;20036;-72
2022/09/30 09:52:12;;;;;;;5.97;2.00;;;;;;;38.22;20.18;98696.34;5037144;28;20559;-72
2022/09/30 09:54:51;;;;;;;7.22;2.33;;;;;;;38.11;20.68;98689.44;5053549;28;20025;-72
2022/09/30 09:57:30;;;;;;;7.03;1.90;;;;;;;38.02;20.67;98678.44;5053769;28;20081;-71
2022/09/30 09:59:59;;;;;;;8.13;2.22;;;;;;;37.98;20.94;98686.38;5038667;28;20025;-72
2022/09/30 10:02:25;;;;;;;8.35;2.22;;;;;;;37.92;21.17;98692.22;5054728;28;20029;-71
2022/09/30 10:04:58;;;;;;;9.80;2.10;;;;;;;37.80;20.93;98688.06;5054830;28;20029;-72
2022/09/30 10:07:24;;;;;;;8.63;2.25;;;;;;;37.70;20.48;98685.53;5053708;28;20431;-71
2022/09/30 10:09:50;;;;;;;7.07;2.40;;;;;;;37.62;21.03;98689.72;5020484;28;20025;-71
2022/09/30 10:12:25;;;;;;;5.78;2.20;;;;;;;37.48;20.85;98686.13;5036835;28;20144;-71
2022/09/30 10:14:54;;;;;;;5.75;1.90;;;;;;;37.33;20.74;98680.91;5036947;28;20078;-71
2022/09/30 10:17:25;;;;;;;7.28;1.85;;;;;;;37.16;20.51;98678.66;5052614;28;20053;-73
2022/09/30 10:19:52;;;;;;;5.07;1.83;;;;;;;36.91;21.14;98664.31;5054833;28;20021;-70
2022/09/30 10:22:29;;;;;;;3.03;1.77;;;;;;;36.63;22.02;98676.91;5025411;28;20036;-76
2022/09/30 10:25:22;;;;;;;5.03;1.75;;;;;;;36.09;22.25;98678.78;5029826;28;20119;-77
2022/09/30 10:27:49;;;;;;;5.53;1.88;;;;;;;35.57;22.64;98678.41;5061264;28;20028;-76
2022/09/30 10:30:33;;;;;;;6.93;2.22;;;;;;;35.18;23.34;98668.31;5046470;28;20017;-80
2022/09/30 10:33:02;;;;;;;5.18;1.98;;;;;;;34.75;23.75;98674.25;5044316;28;20044;-74
2022/09/30 10:35:27;;;;;;;4.03;1.77;;;;;;;34.51;23.95;98672.13;5044342;28;20074;-72
2022/09/30 10:37:53;;;;;;;5.95;1.85;;;;;;;34.47;24.13;98667.53;5061571;28;20020;-69
2022/09/30 10:40:20;;;;;;;5.82;1.70;;;;;;;34.41;23.95;98667.56;5059527;28;20021;-70
2022/09/30 10:42:46;;;;;;;;;;;;;;;34.37;24.38;98665.66;5028359;28;20472;-71
2022/09/30 10:45:32;;;;;;;6.10;1.73;;;;;;;33.96;24.67;98663.81;5061592;28;19919;-73
2022/09/30 10:47:58;;;;;;;5.22;1.70;;;;;;;33.77;24.81;98668.97;5046065;28;20770;-77
2022/09/30 10:50:26;;;;;;;5.05;1.50;;;;;;;33.62;24.86;98674.34;5043788;28;20063;-77
2022/09/30 10:52:57;;;;;;;5.03;1.70;;;;;;;33.51;25.09;98666.25;5045413;28;20029;-75
2022/09/30 10:55:30;;;;;;;3.63;1.80;;;;;;;33.58;25.57;98667.88;5045005;28;20074;-73
2022/09/30 10:57:58;;;;;;;5.03;1.83;;;;;;;33.46;25.32;98658.13;5061653;28;20045;-72
2022/09/30 11:00:24;;;;;;;4.95;1.80;;;;;;;33.27;25.69;98665.94;5027276;28;20025;-73
2022/09/30 11:03:04;;;;;;;6.67;1.90;;;;;;;33.09;25.91;98661.00;5059475;28;20116;-73
2022/09/30 11:05:35;;;;;;;4.15;1.63;;;;;;;32.95;26.28;98657.97;5045838;28;20025;-74
2022/09/30 11:08:32;;;;;;;2.63;1.70;;;;;;;32.68;26.31;98658.97;5028989;28;20017;-73
2022/09/30 11:11:12;;;;;;;4.47;2.00;;;;;;;32.53;26.53;98657.00;5044339;28;20025;-74
2022/09/30 11:14:12;;;;;;;8.68;2.10;;;;;;;32.38;26.78;98660.41;5047668;28;20076;-74
2022/09/30 11:17:02;;;;;;;9.05;1.95;;;;;;;32.06;26.68;98661.28;5060874;28;20095;-73
2022/09/30 11:19:40;;;;;;;8.18;1.88;;;;;;;31.86;27.24;98666.53;5060960;28;20028;-76
2022/09/30 11:22:39;;;;;;;9.40;1.88;;;;;;;31.67;27.42;98658.00;5061140;28;20033;-74
2022/09/30 11:25:04;;;;;;;12.63;1.95;;;;;;;31.58;27.61;98651.44;5060728;28;20019;-75
2022/09/30 11:27:48;;;;;;;3.30;1.75;;;;;;;31.51;27.81;98657.03;5044205;28;20017;-75
2022/09/30 11:30:16;;;;;;;4.82;1.77;;;;;;;31.38;27.57;98642.91;5045821;28;20135;-75
2022/09/30 11:32:54;;;;;;;3.47;1.75;;;;;;;31.27;27.64;98635.78;5060607;28;20091;-75
2022/09/30 11:35:25;;;;;;;;;;;;;;;31.18;27.93;98638.09;5061094;28;20107;-76
2022/09/30 11:38:15;;;;;;;4.25;1.80;;;;;;;31.11;27.71;98625.94;5061780;28;19939;-77
2022/09/30 11:40:47;;;;;;;4.97;1.98;;;;;;;31.03;28.38;98638.78;5051946;28;20505;-76
2022/09/30 11:43:30;;;;;;;3.90;1.70;;;;;;;30.89;27.94;98628.63;5060441;28;20032;-76
2022/09/30 11:46:38;;;;;;;7.10;2.20;;;;;;;30.76;27.61;98630.63;5041436;28;20480;-76
2022/09/30 11:49:23;;;;;;;6.53;1.98;;;;;;;30.74;27.98;98640.03;5055342;28;20029;-77
2022/09/30 11:51:54;;;;;;;3.45;1.80;;;;;;;30.59;28.35;98625.31;5060050;28;20450;-77
2022/09/30 11:54:20;;;;;;;8.85;1.70;;;;;;;30.55;28.23;98623.38;5060576;28;20124;-76